DW7401 Weather Reports


Display with metric or nautical units.
time (UTC)temp
F
wind
direction
speed
MPH
gust
MPH
rain 1hr
in
rain 24hr
in
rain mn
in
humidity
%
barometer
mb
20210926060121 66 212 0.0 0.0 0.00 0.00 0.00 54 1012.3
20210926054602 66 163 0.0 0.0 0.00 0.00 0.00 54 1012.2
20210926053245 67 162 0.0 0.0 0.00 0.00 0.00 53 1012.1
20210926051635 68 244 0.0 1.0 0.00 0.00 0.00 52 1012.0
20210926050202 68 160 0.0 1.0 0.00 0.00 0.00 52 1011.8
20210926044740 68 158 0.0 1.0 0.00 0.00 0.00 51 1011.8
20210926043132 69 163 0.0 1.0 0.00 0.00 0.00 50 1011.8
20210926041600 70 198 0.0 2.0 0.00 0.00 0.00 50 1011.8
20210926040058 70 159 0.0 1.0 0.00 0.00 0.00 50 1011.6
20210926034653 71 173 0.0 3.0 0.00 0.00 0.00 50 1011.5
20210926033146 71 159 0.0 1.0 0.00 0.00 0.00 49 1011.4
20210926031637 72 159 0.0 1.0 0.00 0.00 0.00 48 1011.3
20210926030223 73 162 0.0 0.0 0.00 0.00 0.00 48 1011.1
20210926024639 74 159 0.0 1.0 0.00 0.00 0.00 47 1011.1
20210926023129 75 128 0.0 1.0 0.00 0.00 0.00 45 1011.1
20210926021609 77 216 0.0 1.0 0.00 0.00 0.00 43 1010.9
20210926020109 78 218 0.0 0.0 0.00 0.00 0.00 39 1010.9
20210926014619 80 212 0.0 1.0 0.00 0.00 0.00 35 1010.9
20210926013100 81 203 0.0 3.0 0.00 0.00 0.00 33 1010.8
20210926011725 83 224 0.0 1.0 0.00 0.00 0.00 32 1010.8
20210926010127 84 218 0.0 2.0 0.00 0.00 0.00 31 1010.8
20210926004613 86 215 0.0 1.0 0.00 0.00 0.00 29 1010.8
20210926003116 86 252 0.0 3.0 0.00 0.00 0.00 27 1010.9
20210926001641 86 257 0.0 4.0 0.00 0.00 0.00 27 1010.9
20210926000135 86 277 0.0 4.0 0.00 0.00 0.00 25 1011.0
20210925234639 86 265 0.0 5.0 0.00 0.00 0.00 25 1011.0
20210925233130 87 258 1.0 5.0 0.00 0.00 0.00 23 1011.0
20210925231629 86 224 2.0 7.0 0.00 0.00 0.00 23 1011.0
20210925230058 87 307 1.0 6.0 0.00 0.00 0.00 23 1011.1
20210925224542 87 234 0.0 5.0 0.00 0.00 0.00 22 1011.1
20210925223045 87 210 2.0 8.0 0.00 0.00 0.00 22 1011.2
20210925221544 87 310 2.0 6.0 0.00 0.00 0.00 23 1011.3
20210925220039 87 177 1.0 4.0 0.00 0.00 0.00 23 1011.5
20210925214632 86 271 1.0 6.0 0.00 0.00 0.00 26 1011.7
20210925213044 85 259 2.0 7.0 0.00 0.00 0.00 26 1011.9
20210925211606 86 295 2.0 5.0 0.00 0.00 0.00 25 1012.0
20210925210122 85 198 1.0 5.0 0.00 0.00 0.00 26 1012.2
20210925204606 84 203 1.0 5.0 0.00 0.00 0.00 25 1012.4
20210925203024 84 314 1.0 6.0 0.00 0.00 0.00 26 1012.5
20210925201551 84 212 0.0 4.0 0.00 0.00 0.00 27 1012.6
20210925200021 83 200 1.0 6.0 0.00 0.00 0.00 27 1012.8
20210925194519 83 150 2.0 5.0 0.00 0.00 0.00 27 1013.0
20210925193016 83 317 2.0 5.0 0.00 0.00 0.00 28 1013.0
20210925191530 83 246 2.0 4.0 0.00 0.00 0.00 29 1013.0
20210925190027 82 181 2.0 5.0 0.00 0.00 0.00 28 1013.1
20210925184512 82 297 1.0 4.0 0.00 0.00 0.00 29 1013.2
20210925183016 81 213 0.0 4.0 0.00 0.00 0.00 30 1013.3
20210925181510 80 190 1.0 3.0 0.00 0.00 0.00 31 1013.3
20210925180020 79 226 0.0 3.0 0.00 0.00 0.00 32 1013.3
20210925174510 79 290 1.0 5.0 0.00 0.00 0.00 33 1013.3
20210925173003 80 290 1.0 4.0 0.00 0.00 0.00 32 1013.2
20210925171509 80 266 1.0 3.0 0.00 0.00 0.00 32 1013.2
20210925170153 80 258 0.0 2.0 0.00 0.00 0.00 32 1013.2
20210925164558 79 80 0.0 1.0 0.00 0.00 0.00 32 1013.1
20210925163140 77 80 0.0 0.0 0.00 0.00 0.00 33 1013.0
20210925161611 76 80 0.0 1.0 0.00 0.00 0.00 36 1013.0
20210925160107 73 292 0.0 0.0 0.00 0.00 0.00 39 1012.9
20210925154544 71 293 0.0 0.0 0.00 0.00 0.00 39 1012.9
20210925153051 70 293 0.0 0.0 0.00 0.00 0.00 40 1012.9
20210925151559 69 293 0.0 0.0 0.00 0.00 0.00 41 1012.9
20210925150053 68 293 0.0 0.0 0.00 0.00 0.00 41 1012.9
20210925144603 67 292 0.0 1.0 0.00 0.00 0.00 40 1012.8
20210925143053 68 77 0.0 1.0 0.00 0.00 0.00 40 1012.6
20210925141600 66 70 0.0 0.0 0.00 0.00 0.00 42 1012.6
20210925140044 65 159 0.0 0.0 0.00 0.00 0.00 43 1012.5
20210925134615 63 159 0.0 1.0 0.00 0.00 0.00 46 1012.5
20210925133156 63 135 0.0 1.0 0.00 0.00 0.00 45 1012.5
20210925131557 62 150 0.0 0.0 0.00 0.00 0.00 48 1012.4
20210925130043 62 149 0.0 0.0 0.00 0.00 0.00 47 1012.6
20210925124546 63 149 0.0 0.0 0.00 0.00 0.00 46 1012.6
20210925123028 64 186 0.0 1.0 0.00 0.00 0.00 45 1012.5
20210925121530 65 193 0.0 2.0 0.00 0.00 0.00 44 1012.4
20210925120033 66 176 0.0 1.0 0.00 0.00 0.00 43 1012.3
20210925114526 66 218 0.0 1.0 0.00 0.00 0.00 43 1012.2
20210925113040 66 195 0.0 1.0 0.00 0.00 0.00 43 1012.2
20210925111535 67 181 0.0 0.0 0.00 0.00 0.00 42 1012.1
20210925110009 67 211 0.0 0.0 0.00 0.00 0.00 42 1011.9
20210925104514 68 216 0.0 1.0 0.00 0.00 0.00 41 1012.0
20210925103002 69 219 0.0 1.0 0.00 0.00 0.00 39 1012.0
20210925101503 69 228 0.0 1.0 0.00 0.00 0.00 39 1012.0
20210925100209 69 162 0.0 0.0 0.00 0.00 0.00 39 1012.1
20210925094750 70 150 0.0 1.0 0.00 0.00 0.00 38 1012.2
20210925093144 70 197 0.0 0.0 0.00 0.00 0.00 38 1012.1
20210925091618 70 200 0.0 0.0 0.00 0.00 0.00 37 1012.2
20210925090114 70 200 0.0 1.0 0.00 0.00 0.00 37 1012.1
20210925084559 71 146 0.0 1.0 0.00 0.00 0.00 37 1012.0
20210925083106 71 146 0.0 0.0 0.00 0.00 0.00 37 1011.9
20210925081557 72 221 0.0 1.0 0.00 0.00 0.00 38 1011.9
20210925080157 71 180 0.0 0.0 0.00 0.00 0.00 38 1011.9
20210925074633 71 219 0.0 1.0 0.00 0.00 0.00 39 1011.8
20210925073115 71 155 0.0 1.0 0.00 0.00 0.00 41 1011.7
20210925071543 70 155 0.0 0.0 0.00 0.00 0.00 42 1011.7
20210925070122 70 155 0.0 0.0 0.00 0.00 0.00 42 1011.9
20210925064609 71 153 0.0 1.0 0.00 0.00 0.00 42 1011.7
20210925063119 71 207 0.0 1.0 0.00 0.00 0.00 43 1011.7
20210925061649 71 196 0.0 0.0 0.00 0.00 0.00 43 1011.5